Time;durP1;ratioP1;P1;durP2;ratioP2;P2;SDS_P1;SDS_P2;PMS_P1;PMS_P2;Temp;Humidity;BMP_temperature;BMP_pressure;BME280_temperature;BME280_humidity;BME280_pressure;Samples;Min_cycle;Max_cycle;Signal;HPM_P1;HPM_P2
2022/07/11 00:02:12;;;;;;;7.22;2.70;;;8.60;99.90;;;;;;5055707;28;20089;-69
2022/07/11 00:04:38;;;;;;;12.73;2.78;;;8.60;99.90;;;;;;5056116;28;20546;-69
2022/07/11 00:07:04;;;;;;;12.32;2.90;;;8.50;99.90;;;;;;5055099;28;20021;-68
2022/07/11 00:09:31;;;;;;;9.30;2.80;;;8.60;99.90;;;;;;5055720;28;20152;-68
2022/07/11 00:11:57;;;;;;;9.30;2.90;;;8.50;99.90;;;;;;5055621;28;20108;-68
2022/07/11 00:14:23;;;;;;;16.35;3.65;;;8.50;99.90;;;;;;5055691;28;20112;-68
2022/07/11 00:16:50;;;;;;;7.55;2.72;;;8.50;99.90;;;;;;5055837;28;20105;-69
2022/07/11 00:19:15;;;;;;;8.73;3.03;;;8.50;99.90;;;;;;5055471;28;20141;-68
2022/07/11 00:21:41;;;;;;;4.60;2.55;;;8.50;99.90;;;;;;5055817;28;20017;-68
2022/07/11 00:24:07;;;;;;;7.63;2.40;;;8.40;99.90;;;;;;5055728;28;20473;-68
2022/07/11 00:26:34;;;;;;;5.07;2.40;;;8.40;99.90;;;;;;5055476;28;20135;-68
2022/07/11 00:28:59;;;;;;;11.23;3.67;;;8.30;99.90;;;;;;5055577;28;20391;-68
2022/07/11 00:31:25;;;;;;;7.43;3.30;;;8.30;99.90;;;;;;5055446;28;20036;-68
2022/07/11 00:33:50;;;;;;;14.10;2.97;;;8.20;99.90;;;;;;5055367;28;20143;-68
2022/07/11 00:36:16;;;;;;;7.10;3.40;;;8.30;99.90;;;;;;5055482;28;20040;-68
2022/07/11 00:38:42;;;;;;;12.88;4.38;;;8.30;99.90;;;;;;5055185;28;20025;-68
2022/07/11 00:41:07;;;;;;;8.18;3.13;;;8.30;99.90;;;;;;5055077;28;20025;-68
2022/07/11 00:43:36;;;;;;;15.02;4.47;;;8.40;99.90;;;;;;5055167;28;20108;-68
2022/07/11 00:46:03;;;;;;;8.35;2.88;;;8.30;99.90;;;;;;5055333;28;20035;-68
2022/07/11 00:48:29;;;;;;;6.18;2.35;;;8.30;99.90;;;;;;5055323;28;20020;-68
2022/07/11 00:50:55;;;;;;;5.10;2.47;;;8.20;99.90;;;;;;5055034;28;20028;-68
2022/07/11 00:53:21;;;;;;;3.75;2.63;;;8.20;99.90;;;;;;5055160;28;20024;-68
2022/07/11 00:55:47;;;;;;;16.80;3.75;;;8.10;99.90;;;;;;5054866;28;20155;-68
2022/07/11 00:58:13;;;;;;;7.00;3.22;;;8.10;99.90;;;;;;5055304;28;20025;-68
2022/07/11 01:00:40;;;;;;;5.93;3.10;;;8.10;99.90;;;;;;5054749;28;20114;-68
2022/07/11 01:03:07;;;;;;;10.00;3.33;;;8.10;99.90;;;;;;5061224;23;20132;-70
2022/07/11 01:05:32;;;;;;;6.32;2.85;;;8.10;99.90;;;;;;5035120;28;20032;-69
2022/07/11 01:07:58;;;;;;;9.20;3.42;;;8.00;99.90;;;;;;5034775;28;20377;-69
2022/07/11 01:10:24;;;;;;;7.97;3.17;;;8.00;99.90;;;;;;5035171;28;20373;-69
2022/07/11 01:12:50;;;;;;;18.67;3.70;;;8.00;99.90;;;;;;5034999;28;20432;-70
2022/07/11 01:15:16;;;;;;;6.75;3.08;;;8.00;99.90;;;;;;5016859;28;20056;-70
2022/07/11 01:17:42;;;;;;;8.43;3.20;;;8.00;99.90;;;;;;5034689;28;20025;-69
2022/07/11 01:20:09;;;;;;;7.93;2.47;;;7.90;99.90;;;;;;5033647;28;20072;-69
2022/07/11 01:22:51;;;;;;;5.10;2.90;;;7.90;99.90;;;;;;5034595;28;20501;-69
2022/07/11 01:25:32;;;;;;;9.10;3.17;;;7.80;99.90;;;;;;5034623;28;20083;-69
2022/07/11 01:28:08;;;;;;;6.82;2.90;;;7.80;99.90;;;;;;5034657;28;20072;-69
2022/07/11 01:30:34;;;;;;;4.32;2.83;;;7.80;99.90;;;;;;5034525;28;20426;-69
2022/07/11 01:33:00;;;;;;;4.40;2.58;;;7.70;99.90;;;;;;5034635;28;20034;-69
2022/07/11 01:35:27;;;;;;;4.72;2.85;;;7.70;99.90;;;;;;5034227;28;20083;-69
2022/07/11 01:37:53;;;;;;;10.65;3.75;;;7.70;99.90;;;;;;5034294;28;20133;-69
2022/07/11 01:40:19;;;;;;;9.43;2.85;;;7.60;99.90;;;;;;5033960;28;20022;-69
2022/07/11 01:42:45;;;;;;;3.78;2.30;;;7.60;99.90;;;;;;5034036;28;20021;-69
2022/07/11 01:45:11;;;;;;;6.28;3.13;;;7.60;99.90;;;;;;5034561;28;20123;-69
2022/07/11 01:47:38;;;;;;;5.07;2.67;;;7.70;99.90;;;;;;5034565;28;20073;-69
2022/07/11 01:50:04;;;;;;;5.38;2.90;;;7.70;99.90;;;;;;5034179;28;20037;-69
2022/07/11 01:52:30;;;;;;;8.40;3.30;;;7.60;99.90;;;;;;5033915;28;20030;-69
2022/07/11 01:54:56;;;;;;;9.27;2.80;;;7.60;99.90;;;;;;5034227;28;20087;-69
2022/07/11 01:57:21;;;;;;;6.72;3.10;;;7.70;99.90;;;;;;5033876;28;20022;-70
2022/07/11 01:59:47;;;;;;;9.15;3.63;;;7.70;99.90;;;;;;5033796;28;20025;-70
2022/07/11 02:02:13;;;;;;;8.18;3.40;;;7.80;99.90;;;;;;5033735;28;20028;-70
2022/07/11 02:04:39;;;;;;;9.13;3.60;;;7.80;99.90;;;;;;5034113;28;20029;-69
2022/07/11 02:07:05;;;;;;;6.78;3.30;;;7.80;99.90;;;;;;5034217;28;20068;-69
2022/07/11 02:09:30;;;;;;;7.57;3.45;;;7.80;99.90;;;;;;5033649;28;20029;-69
2022/07/11 02:11:56;;;;;;;4.88;2.90;;;7.70;99.90;;;;;;5033534;28;20477;-69
2022/07/11 02:14:22;;;;;;;5.07;2.92;;;7.70;99.90;;;;;;5033710;28;20029;-69
2022/07/11 02:16:48;;;;;;;4.68;3.58;;;7.70;99.90;;;;;;5033736;28;20025;-69
2022/07/11 02:19:13;;;;;;;6.55;3.67;;;7.60;99.90;;;;;;5033490;28;20048;-69
2022/07/11 02:21:39;;;;;;;6.55;3.63;;;7.60;99.90;;;;;;5033667;28;20026;-69
2022/07/11 02:24:05;;;;;;;7.22;3.90;;;7.60;99.90;;;;;;5033470;28;20053;-69
2022/07/11 02:26:30;;;;;;;7.57;3.58;;;7.60;99.90;;;;;;5033521;28;20378;-69
2022/07/11 02:28:56;;;;;;;5.40;3.25;;;7.50;99.90;;;;;;5033772;28;20046;-70
2022/07/11 02:31:22;;;;;;;8.75;3.83;;;7.40;99.90;;;;;;5033105;28;20025;-70
2022/07/11 02:33:47;;;;;;;7.07;3.60;;;7.40;99.90;;;;;;5033469;28;20028;-70
2022/07/11 02:36:13;;;;;;;4.85;3.25;;;7.30;99.90;;;;;;5033540;28;20036;-69
2022/07/11 02:38:39;;;;;;;6.38;3.72;;;7.30;99.90;;;;;;5033578;28;20144;-69
2022/07/11 02:41:05;;;;;;;5.88;3.85;;;7.20;99.90;;;;;;5033270;28;20500;-69
2022/07/11 02:43:31;;;;;;;11.23;4.32;;;7.20;99.90;;;;;;5033206;28;20026;-69
2022/07/11 02:45:56;;;;;;;4.95;3.58;;;7.20;99.90;;;;;;5033281;28;20020;-69
2022/07/11 02:48:22;;;;;;;7.47;3.75;;;7.20;99.90;;;;;;5016095;28;20477;-69
2022/07/11 02:50:47;;;;;;;7.47;3.70;;;7.10;99.90;;;;;;5033304;28;20104;-69
2022/07/11 02:53:13;;;;;;;13.43;3.85;;;7.10;99.90;;;;;;5033174;28;20076;-69
2022/07/11 02:55:39;;;;;;;6.60;4.07;;;7.10;99.90;;;;;;5033233;28;20033;-69
2022/07/11 02:58:05;;;;;;;12.73;4.18;;;7.10;99.90;;;;;;5033474;28;20377;-69
2022/07/11 03:00:31;;;;;;;7.25;4.10;;;7.10;99.90;;;;;;5033102;28;20102;-69
2022/07/11 03:02:56;;;;;;;7.15;4.28;;;7.20;99.90;;;;;;5032976;28;20386;-69
2022/07/11 03:05:22;;;;;;;10.00;4.10;;;7.10;99.90;;;;;;5033395;28;20100;-69
2022/07/11 03:07:48;;;;;;;7.93;4.00;;;7.20;99.90;;;;;;5033137;28;20071;-69
2022/07/11 03:10:14;;;;;;;8.18;3.83;;;7.20;99.90;;;;;;5033129;28;20104;-69
2022/07/11 03:12:41;;;;;;;6.10;3.70;;;7.20;99.90;;;;;;5032976;28;20025;-69
2022/07/11 03:15:07;;;;;;;7.20;3.80;;;7.20;99.90;;;;;;5033072;28;20103;-69
2022/07/11 03:17:34;;;;;;;7.47;4.15;;;7.30;99.90;;;;;;5015262;28;20037;-69
2022/07/11 03:20:00;;;;;;;10.82;3.60;;;7.40;99.90;;;;;;5032859;28;20496;-69
2022/07/11 03:22:26;;;;;;;4.32;3.25;;;7.40;99.90;;;;;;5033093;28;20022;-69
2022/07/11 03:24:52;;;;;;;6.22;3.38;;;7.50;99.90;;;;;;5032964;28;20492;-69
2022/07/11 03:27:17;;;;;;;7.35;3.60;;;7.50;99.90;;;;;;5032900;28;20021;-69
2022/07/11 03:29:43;;;;;;;5.35;3.95;;;7.50;99.90;;;;;;5033036;28;20028;-69
2022/07/11 03:32:09;;;;;;;7.45;4.63;;;7.50;99.90;;;;;;5032759;28;20026;-69
2022/07/11 03:34:35;;;;;;;12.70;5.18;;;7.60;99.90;;;;;;5032872;28;20026;-69
2022/07/11 03:37:01;;;;;;;5.18;3.88;;;7.70;99.90;;;;;;5033311;28;20026;-69
2022/07/11 03:39:27;;;;;;;12.15;6.35;;;7.70;99.90;;;;;;5033026;28;20079;-69
2022/07/11 03:41:53;;;;;;;8.77;5.03;;;7.80;99.90;;;;;;5033338;28;20366;-69
2022/07/11 03:44:19;;;;;;;5.57;4.47;;;7.90;99.90;;;;;;5036460;28;20026;-69
2022/07/11 03:46:44;;;;;;;7.97;3.97;;;7.90;99.90;;;;;;5036585;28;20034;-69
2022/07/11 03:49:10;;;;;;;8.95;4.07;;;8.00;99.90;;;;;;5036630;28;20091;-69
2022/07/11 03:51:35;;;;;;;8.90;5.18;;;8.10;99.90;;;;;;5036289;28;20087;-69
2022/07/11 03:54:01;;;;;;;8.10;4.97;;;8.20;99.90;;;;;;5036408;28;20053;-69
2022/07/11 03:56:27;;;;;;;11.75;4.90;;;8.30;99.90;;;;;;5036117;28;20053;-69
2022/07/11 03:58:52;;;;;;;7.13;4.38;;;8.40;99.90;;;;;;5036174;28;20029;-69
2022/07/11 04:01:19;;;;;;;15.55;5.95;;;8.50;99.90;;;;;;5036225;28;20038;-69
2022/07/11 04:03:45;;;;;;;9.57;5.25;;;8.60;99.90;;;;;;5035964;28;20053;-69
2022/07/11 04:06:11;;;;;;;11.23;4.55;;;8.80;99.90;;;;;;5035942;28;20053;-69
2022/07/11 04:08:36;;;;;;;12.73;5.25;;;8.90;99.90;;;;;;5035958;28;20029;-69
2022/07/11 04:11:02;;;;;;;12.10;5.22;;;9.10;99.90;;;;;;5036854;28;20029;-69
2022/07/11 04:13:29;;;;;;;11.60;4.53;;;9.20;99.90;;;;;;5036202;28;20028;-69
2022/07/11 04:15:54;;;;;;;10.60;5.32;;;9.40;99.90;;;;;;5017993;28;20025;-69
2022/07/11 04:18:20;;;;;;;5.20;4.18;;;9.50;99.90;;;;;;5036514;28;20107;-69
2022/07/11 04:20:45;;;;;;;6.93;4.75;;;9.60;99.90;;;;;;5035658;28;20378;-69
2022/07/11 04:23:11;;;;;;;9.25;5.57;;;9.70;99.90;;;;;;5035605;28;20393;-69
2022/07/11 04:25:36;;;;;;;5.68;4.50;;;9.80;99.90;;;;;;5035499;28;20022;-69
2022/07/11 04:28:02;;;;;;;9.75;4.97;;;9.90;99.90;;;;;;5035595;28;20022;-70
2022/07/11 04:30:28;;;;;;;12.00;5.80;;;10.10;99.90;;;;;;5035506;28;20568;-70
2022/07/11 04:32:55;;;;;;;13.90;6.63;;;10.20;99.90;;;;;;5035438;28;20029;-70
2022/07/11 04:35:20;;;;;;;25.25;7.75;;;10.40;99.90;;;;;;5035689;28;20025;-70
2022/07/11 04:37:46;;;;;;;11.02;6.47;;;10.40;99.90;;;;;;5035765;28;20040;-70
2022/07/11 04:40:12;;;;;;;11.73;6.15;;;10.50;99.90;;;;;;5035253;28;20029;-70
2022/07/11 04:42:38;;;;;;;12.05;6.38;;;10.60;99.90;;;;;;5035451;28;20359;-70
2022/07/11 04:45:04;;;;;;;14.85;7.05;;;10.70;99.90;;;;;;5035546;28;20071;-70
2022/07/11 04:47:29;;;;;;;21.33;7.15;;;10.80;99.90;;;;;;5035190;28;20025;-70
2022/07/11 04:49:56;;;;;;;20.20;7.90;;;11.00;99.90;;;;;;5035137;28;20115;-70
2022/07/11 04:52:26;;;;;;;15.38;7.07;;;11.10;99.90;;;;;;5035216;28;20044;-70
2022/07/11 04:54:52;;;;;;;18.90;7.43;;;11.20;99.90;;;;;;5035296;28;20108;-70
2022/07/11 04:57:18;;;;;;;15.05;6.63;;;11.30;99.90;;;;;;5035151;28;20519;-70
2022/07/11 04:59:43;;;;;;;15.55;6.18;;;11.30;99.90;;;;;;5034919;28;20033;-70
2022/07/11 05:02:09;;;;;;;11.50;5.88;;;11.30;99.90;;;;;;5034997;28;20053;-70
2022/07/11 05:04:34;;;;;;;14.45;5.80;;;11.40;99.90;;;;;;5034808;28;20033;-70
2022/07/11 05:07:00;;;;;;;10.60;5.97;;;11.50;99.90;;;;;;5035286;28;20029;-70
2022/07/11 05:09:26;;;;;;;16.83;6.95;;;11.70;99.90;;;;;;5034735;28;20459;-70
2022/07/11 05:11:51;;;;;;;22.40;7.65;;;11.90;99.90;;;;;;5034891;28;20433;-70
2022/07/11 05:14:17;;;;;;;11.50;6.38;;;12.00;99.90;;;;;;5034853;28;20029;-70
2022/07/11 05:16:42;;;;;;;18.52;5.95;;;12.20;99.90;;;;;;5034707;28;20022;-70
2022/07/11 05:19:08;;;;;;;13.60;6.25;;;12.40;99.90;;;;;;5034631;28;20017;-70
2022/07/11 05:21:33;;;;;;;17.55;5.25;;;12.50;99.90;;;;;;5034795;28;20172;-70
2022/07/11 05:23:59;;;;;;;19.92;5.80;;;12.70;99.90;;;;;;5034462;28;20032;-70
2022/07/11 05:26:24;;;;;;;15.65;5.60;;;12.70;99.90;;;;;;5034486;28;20024;-70
2022/07/11 05:28:50;;;;;;;14.95;4.40;;;12.90;99.90;;;;;;5034415;28;20105;-70
2022/07/11 05:31:16;;;;;;;9.77;4.13;;;13.00;99.90;;;;;;5034326;28;20559;-70
2022/07/11 05:33:41;;;;;;;28.70;6.03;;;13.10;99.90;;;;;;5034515;28;20109;-70
2022/07/11 05:36:07;;;;;;;14.95;4.72;;;13.30;99.90;;;;;;5034227;28;20083;-70
2022/07/11 05:38:33;;;;;;;8.57;3.55;;;13.20;99.90;;;;;;5034197;28;20021;-70
2022/07/11 05:40:59;;;;;;;14.50;3.30;;;13.30;99.90;;;;;;5034184;28;20087;-70
2022/07/11 05:43:25;;;;;;;13.10;3.33;;;13.40;99.90;;;;;;5034126;28;20020;-70
2022/07/11 05:45:51;;;;;;;11.05;3.17;;;13.40;99.90;;;;;;5034485;28;20096;-70
2022/07/11 05:48:16;;;;;;;13.77;3.03;;;13.50;99.90;;;;;;5034662;28;20053;-70
2022/07/11 05:50:43;;;;;;;11.10;3.38;;;13.50;99.90;;;;;;5034136;28;20029;-70
2022/07/11 05:53:10;;;;;;;8.25;3.15;;;13.70;99.90;;;;;;5034498;28;20071;-70
2022/07/11 05:55:36;;;;;;;10.00;3.75;;;13.70;99.90;;;;;;5033991;28;20025;-70
2022/07/11 05:58:02;;;;;;;6.13;2.97;;;13.80;99.90;;;;;;5016235;28;20155;-70
2022/07/11 06:00:28;;;;;;;10.65;2.75;;;13.80;99.90;;;;;;5034082;28;20390;-70
2022/07/11 06:02:54;;;;;;;8.68;2.60;;;13.80;99.90;;;;;;5015977;28;20033;-70
2022/07/11 06:05:19;;;;;;;10.30;2.53;;;13.90;99.90;;;;;;5033170;28;20025;-70
2022/07/11 06:10:29;;;;;;;10.70;2.47;;;14.20;99.90;;;;;;5033973;28;20040;-70
2022/07/11 06:12:55;;;;;;;8.32;2.58;;;14.30;99.90;;;;;;5033879;28;20025;-70
2022/07/11 06:15:21;;;;;;;8.57;2.45;;;14.40;99.90;;;;;;5034019;28;20104;-70
2022/07/11 06:17:47;;;;;;;14.27;2.53;;;14.60;99.90;;;;;;5033789;28;20022;-71
2022/07/11 06:20:12;;;;;;;10.68;2.25;;;14.70;99.90;;;;;;5034038;28;20111;-71
2022/07/11 06:22:38;;;;;;;11.75;2.05;;;14.80;99.90;;;;;;5033649;28;20025;-70
2022/07/11 06:25:04;;;;;;;10.57;2.50;;;15.00;99.90;;;;;;5033503;28;20029;-69
2022/07/11 06:27:30;;;;;;;7.07;1.63;;;15.10;99.90;;;;;;5033584;28;20433;-70
2022/07/11 06:29:55;;;;;;;5.10;1.75;;;15.20;99.90;;;;;;5033687;28;20064;-70
2022/07/11 06:32:21;;;;;;;7.78;2.05;;;15.30;99.90;;;;;;5033366;28;20025;-70
2022/07/11 06:34:47;;;;;;;10.43;1.73;;;15.50;99.90;;;;;;5033796;28;20048;-70
2022/07/11 06:37:12;;;;;;;21.17;3.22;;;15.60;99.90;;;;;;5033868;28;20075;-70
2022/07/11 06:39:38;;;;;;;12.20;2.88;;;15.80;99.90;;;;;;5033889;28;20022;-70
2022/07/11 06:42:04;;;;;;;13.88;2.03;;;15.80;99.90;;;;;;5033410;28;20022;-70
2022/07/11 06:44:29;;;;;;;9.75;2.08;;;16.00;99.90;;;;;;5033466;28;20021;-71
2022/07/11 06:46:55;;;;;;;9.82;2.30;;;16.10;99.90;;;;;;5033710;28;20469;-71
2022/07/11 06:49:21;;;;;;;8.00;1.70;;;16.20;99.90;;;;;;5033915;28;20421;-71
2022/07/11 06:51:47;;;;;;;7.97;1.88;;;16.30;99.90;;;;;;5033771;28;20160;-71
2022/07/11 06:54:12;;;;;;;7.25;2.20;;;16.30;99.90;;;;;;5033803;28;20060;-71
2022/07/11 06:56:38;;;;;;;7.57;2.13;;;16.50;99.90;;;;;;5033664;28;20026;-71
2022/07/11 06:59:04;;;;;;;12.00;2.05;;;16.60;99.90;;;;;;5034047;28;20097;-71
2022/07/11 07:01:29;;;;;;;7.65;1.83;;;16.60;99.90;;;;;;5033266;28;20032;-70
2022/07/11 07:03:55;;;;;;;9.20;1.63;;;16.60;99.90;;;;;;5033637;28;20029;-70
2022/07/11 07:06:20;;;;;;;10.18;2.45;;;16.60;99.90;;;;;;5033858;28;20057;-70
2022/07/11 07:08:46;;;;;;;4.53;1.40;;;16.80;99.90;;;;;;5033596;28;20033;-70
2022/07/11 07:11:12;;;;;;;8.38;1.73;;;17.00;99.90;;;;;;5033253;28;20528;-70
2022/07/11 07:13:37;;;;;;;6.07;1.27;;;17.30;99.90;;;;;;5033169;28;20075;-70
2022/07/11 07:16:06;;;;;;;6.45;1.98;;;17.40;99.90;;;;;;5034345;28;20026;-70
2022/07/11 07:18:32;;;;;;;9.65;1.77;;;17.30;99.90;;;;;;5036968;28;20021;-70
2022/07/11 07:20:58;;;;;;;12.52;1.90;;;17.10;99.90;;;;;;5036735;28;20104;-70
2022/07/11 07:23:23;;;;;;;24.27;2.30;;;16.80;99.90;;;;;;5036807;28;20477;-69
2022/07/11 07:25:49;;;;;;;9.93;2.00;;;16.80;99.90;;;;;;5019051;28;20021;-70
2022/07/11 07:28:15;;;;;;;8.68;2.30;;;16.70;99.90;;;;;;5037061;28;20029;-69
2022/07/11 07:30:40;;;;;;;10.70;3.20;;;16.80;99.90;;;;;;5037150;28;20017;-70
2022/07/11 07:33:06;;;;;;;13.02;1.90;;;16.80;99.90;;;;;;5036866;28;20065;-70
2022/07/11 07:35:31;;;;;;;9.40;2.55;;;16.90;99.90;;;;;;5036679;28;20048;-69
2022/07/11 07:37:57;;;;;;;8.98;1.75;;;17.20;99.90;;;;;;5036934;28;20026;-70
2022/07/11 07:40:23;;;;;;;8.20;2.05;;;17.70;99.90;;;;;;5036845;28;20031;-70
2022/07/11 07:42:48;;;;;;;16.60;2.28;;;17.90;99.90;;;;;;5036418;28;20068;-70
2022/07/11 07:45:14;;;;;;;12.55;1.80;;;17.90;99.90;;;;;;5036605;28;20025;-70
2022/07/11 07:47:41;;;;;;;3.20;1.30;;;17.90;99.90;;;;;;5036557;28;20013;-69
2022/07/11 07:50:07;;;;;;;6.65;1.35;;;17.80;99.90;;;;;;5036335;28;20504;-69
2022/07/11 07:52:33;;;;;;;4.90;1.63;;;17.90;99.90;;;;;;5036427;28;20017;-69
2022/07/11 07:54:58;;;;;;;3.35;1.20;;;18.00;99.90;;;;;;5036200;28;20028;-69
2022/07/11 07:57:24;;;;;;;5.63;1.65;;;18.10;99.90;;;;;;5036225;28;20030;-69
2022/07/11 07:59:49;;;;;;;7.47;2.05;;;18.00;99.90;;;;;;5036409;28;20033;-69
2022/07/11 08:02:15;;;;;;;4.05;1.33;;;18.10;99.90;;;;;;5035857;28;20053;-69
2022/07/11 08:04:41;;;;;;;6.43;1.75;;;18.40;99.90;;;;;;5036006;28;20021;-69
2022/07/11 08:07:06;;;;;;;4.35;1.20;;;18.60;99.90;;;;;;5035940;28;20036;-70
2022/07/11 08:09:32;;;;;;;9.10;1.77;;;19.20;99.90;;;;;;5036056;28;20036;-69
2022/07/11 08:11:57;;;;;;;9.43;2.05;;;19.20;99.90;;;;;;5035804;28;20164;-69
2022/07/11 08:14:23;;;;;;;10.05;1.63;;;19.40;99.90;;;;;;5036082;28;20028;-69
2022/07/11 08:16:49;;;;;;;4.00;1.73;;;19.60;99.90;;;;;;5036345;28;20028;-69
2022/07/11 08:19:15;;;;;;;9.23;2.20;;;19.80;99.90;;;;;;5035826;28;20140;-69
2022/07/11 08:21:41;;;;;;;6.63;2.38;;;20.10;99.90;;;;;;5035944;28;20036;-70
2022/07/11 08:24:07;;;;;;;4.47;1.30;;;20.10;99.90;;;;;;5035647;28;20029;-70
2022/07/11 08:26:33;;;;;;;4.60;1.15;;;20.30;99.90;;;;;;5035732;28;20100;-70
2022/07/11 08:29:03;;;;;;;3.53;1.23;;;20.20;99.90;;;;;;5035245;28;20025;-70
2022/07/11 08:31:28;;;;;;;3.15;1.73;;;20.20;99.90;;;;;;5035609;28;20022;-70
2022/07/11 08:33:54;;;;;;;7.57;1.90;;;19.90;99.90;;;;;;5035452;28;20036;-70
2022/07/11 08:36:20;;;;;;;6.03;1.60;;;19.40;99.90;;;;;;5035772;28;20033;-70
2022/07/11 08:38:48;;;;;;;3.75;1.00;;;18.90;99.90;;;;;;5036029;28;20225;-70
2022/07/11 08:41:16;;;;;;;5.55;1.30;;;18.90;99.90;;;;;;5035346;28;20112;-70
2022/07/11 08:43:43;;;;;;;4.20;1.50;;;19.20;99.90;;;;;;5017663;28;20075;-70
2022/07/11 08:46:10;;;;;;;3.55;1.17;;;19.50;99.90;;;;;;5035595;28;20017;-70
2022/07/11 08:48:39;;;;;;;5.40;1.65;;;19.40;99.90;;;;;;5035582;28;20029;-70
2022/07/11 08:51:07;;;;;;;2.47;1.05;;;19.80;99.90;;;;;;5035397;28;20481;-70
2022/07/11 08:53:37;;;;;;;6.18;1.38;;;20.00;99.90;;;;;;5035236;28;20148;-70
2022/07/11 08:56:03;;;;;;;7.18;1.75;;;20.40;99.90;;;;;;5035196;28;20026;-70
2022/07/11 08:58:31;;;;;;;13.77;1.17;;;20.50;99.90;;;;;;5035140;28;20029;-70
2022/07/11 09:00:57;;;;;;;3.50;1.85;;;20.10;99.90;;;;;;5036197;28;20025;-70
2022/07/11 09:03:23;;;;;;;3.65;1.60;;;19.50;99.90;;;;;;5036004;28;20040;-70
2022/07/11 09:05:50;;;;;;;6.38;1.90;;;19.60;99.90;;;;;;5035324;28;20072;-70
2022/07/11 09:08:15;;;;;;;9.40;1.25;;;19.80;99.90;;;;;;5035163;28;20452;-70
2022/07/11 09:10:41;;;;;;;6.50;1.80;;;20.30;99.90;;;;;;5034901;28;20101;-70
2022/07/11 09:13:10;;;;;;;3.75;1.35;;;20.70;99.90;;;;;;5034702;28;20025;-70
2022/07/11 09:15:41;;;;;;;2.60;0.90;;;21.10;99.90;;;;;;5034983;28;20032;-70
2022/07/11 09:18:30;;;;;;;3.92;1.27;;;21.30;99.90;;;;;;5034852;28;20462;-70
2022/07/11 09:26:32;;;;;;;3.63;1.45;;;20.80;99.90;;;;;;5035217;28;20028;-70
2022/07/11 09:29:06;;;;;;;3.15;1.02;;;20.60;99.90;;;;;;5034627;28;20021;-70
2022/07/11 09:31:33;;;;;;;10.15;1.10;;;20.80;99.90;;;;;;5034781;28;20025;-70
2022/07/11 09:34:01;;;;;;;2.92;1.02;;;20.90;99.90;;;;;;5034461;28;20026;-70
2022/07/11 09:36:50;;;;;;;2.40;1.00;;;21.10;99.90;;;;;;5034990;28;20146;-70
2022/07/11 09:39:20;;;;;;;4.95;1.20;;;21.40;99.90;;;;;;5034105;28;20033;-69
2022/07/11 09:41:47;;;;;;;4.68;1.60;;;21.70;99.90;;;;;;5034061;28;20501;-69
2022/07/11 09:44:33;;;;;;;2.28;0.85;;;21.60;99.90;;;;;;5034350;28;20378;-69
2022/07/11 09:47:00;;;;;;;5.70;1.08;;;21.70;99.90;;;;;;5034277;28;20470;-69
2022/07/11 09:49:34;;;;;;;2.78;0.80;;;21.80;99.90;;;;;;5034373;28;20382;-69
2022/07/11 09:52:11;;;;;;;3.30;0.93;;;22.00;99.90;;;;;;5034170;28;20021;-69
2022/07/11 09:54:55;;;;;;;3.05;0.80;;;22.20;99.90;;;;;;5034398;28;20064;-69
2022/07/11 09:57:30;;;;;;;2.92;0.82;;;22.10;99.90;;;;;;5034537;28;20018;-69
2022/07/11 09:59:55;;;;;;;4.95;1.20;;;22.20;99.90;;;;;;5033959;28;20021;-69
2022/07/11 10:02:21;;;;;;;2.67;0.88;;;22.20;99.90;;;;;;5033858;28;20083;-69
2022/07/11 10:04:48;;;;;;;3.25;1.08;;;22.00;99.90;;;;;;5033931;28;20037;-69
2022/07/11 10:07:13;;;;;;;5.88;0.82;;;22.10;99.90;;;;;;5033916;28;20018;-69
2022/07/11 10:09:39;;;;;;;5.07;0.90;;;22.30;99.90;;;;;;5034207;28;20531;-69
2022/07/11 10:12:05;;;;;;;3.00;0.95;;;22.20;99.90;;;;;;5033752;28;20492;-69
2022/07/11 10:14:31;;;;;;;4.78;0.80;;;22.00;99.90;;;;;;5033752;28;20112;-69
2022/07/11 10:17:07;;;;;;;4.32;0.95;;;22.00;99.90;;;;;;5033999;28;20053;-69
2022/07/11 10:19:47;;;;;;;1.13;0.77;;;22.20;99.90;;;;;;5033655;28;20072;-69
2022/07/11 10:22:41;;;;;;;4.80;2.80;;;22.40;99.90;;;;;;5033743;28;20018;-69
2022/07/11 10:25:13;;;;;;;1.60;0.63;;;22.30;99.90;;;;;;5033976;28;20159;-69
2022/07/11 10:27:59;;;;;;;2.00;0.80;;;22.30;99.90;;;;;;5033978;28;20408;-69
2022/07/11 10:30:45;;;;;;;1.75;0.50;;;22.50;99.90;;;;;;4993361;28;20033;-69
2022/07/11 10:33:11;;;;;;;3.55;0.73;;;22.40;99.90;;;;;;5015880;28;20179;-69
2022/07/11 10:35:40;;;;;;;9.23;1.27;;;22.30;99.90;;;;;;5033472;28;20511;-69
2022/07/11 10:38:06;;;;;;;3.63;0.80;;;22.50;99.90;;;;;;5033577;28;20033;-69
2022/07/11 10:40:45;;;;;;;3.85;0.88;;;22.80;99.90;;;;;;5033281;28;20026;-69
2022/07/11 10:43:14;;;;;;;2.92;1.10;;;22.70;99.90;;;;;;5033670;28;20100;-69
2022/07/11 10:46:11;;;;;;;2.10;0.88;;;22.80;99.90;;;;;;5033664;28;20021;-69
2022/07/11 10:49:00;;;;;;;1.70;0.77;;;22.80;99.90;;;;;;5021380;28;20123;-69
2022/07/11 10:51:37;;;;;;;5.32;1.10;;;22.90;99.90;;;;;;5035040;28;20029;-69
2022/07/11 10:54:35;;;;;;;3.20;0.93;;;23.00;99.90;;;;;;5037537;28;20025;-69
2022/07/11 10:57:19;;;;;;;5.75;1.25;;;23.30;99.90;;;;;;5037406;28;20427;-69
2022/07/11 11:00:00;;;;;;;2.85;0.85;;;23.60;99.90;;;;;;5037279;28;20018;-69
2022/07/11 11:02:29;;;;;;;10.07;1.42;;;23.60;99.90;;;;;;5037124;28;20036;-69
2022/07/11 11:04:59;;;;;;;4.75;0.90;;;23.50;99.90;;;;;;5037442;28;20049;-69
2022/07/11 11:07:44;;;;;;;9.52;1.20;;;23.10;99.90;;;;;;5037145;28;20017;-69
2022/07/11 11:10:18;;;;;;;4.13;1.23;;;22.70;99.90;;;;;;5037427;28;20056;-69
2022/07/11 11:13:06;;;;;;;2.72;0.90;;;22.80;99.90;;;;;;5037710;28;20033;-69
2022/07/11 11:15:32;;;;;;;2.22;0.80;;;23.00;99.90;;;;;;5037087;28;20026;-69
2022/07/11 11:17:57;;;;;;;1.77;0.80;;;22.80;99.90;;;;;;5037000;28;20033;-69
2022/07/11 11:20:32;;;;;;;6.80;1.38;;;22.80;99.90;;;;;;5037217;28;20029;-69
2022/07/11 11:23:10;;;;;;;4.68;0.88;;;22.80;99.90;;;;;;5037229;28;20025;-69
2022/07/11 11:25:36;;;;;;;2.80;0.90;;;23.30;99.90;;;;;;5038053;28;20045;-69
2022/07/11 11:28:04;;;;;;;3.65;1.15;;;23.60;99.90;;;;;;5037552;28;20026;-69
2022/07/11 11:30:33;;;;;;;9.43;1.02;;;23.90;99.90;;;;;;5036851;28;20025;-69
2022/07/11 11:32:58;;;;;;;3.70;1.13;;;23.50;99.90;;;;;;5036756;28;20030;-69
2022/07/11 11:35:24;;;;;;;4.20;0.82;;;23.50;99.90;;;;;;5036736;28;20103;-69
2022/07/11 11:37:51;;;;;;;2.97;0.90;;;23.40;99.90;;;;;;5036961;28;20029;-69
2022/07/11 11:40:17;;;;;;;2.28;0.70;;;23.70;99.90;;;;;;5036410;28;20120;-69
2022/07/11 11:42:42;;;;;;;4.95;1.33;;;23.80;99.90;;;;;;5036482;28;20106;-69
2022/07/11 11:45:11;;;;;;;5.57;1.13;;;23.80;99.90;;;;;;5036579;28;20037;-69
2022/07/11 11:47:50;;;;;;;2.38;0.73;;;23.50;99.90;;;;;;5036844;28;20045;-69
2022/07/11 11:50:16;;;;;;;1.02;0.40;;;23.40;99.90;;;;;;5036715;28;20048;-69
2022/07/11 11:52:41;;;;;;;2.65;0.80;;;23.50;99.90;;;;;;5036443;28;20030;-69
2022/07/11 11:55:09;;;;;;;3.08;1.05;;;23.40;99.90;;;;;;5036262;28;20025;-69
2022/07/11 11:57:34;;;;;;;3.55;0.90;;;23.50;99.90;;;;;;5036237;28;20025;-69
2022/07/11 12:00:00;;;;;;;7.15;1.08;;;23.60;99.90;;;;;;5036450;28;20040;-69
2022/07/11 12:02:30;;;;;;;2.13;0.70;;;23.60;99.90;;;;;;5034992;28;20501;-69
2022/07/11 12:04:57;;;;;;;6.15;1.17;;;23.80;99.90;;;;;;5036588;28;20034;-69
2022/07/11 12:07:24;;;;;;;3.80;1.55;;;23.70;99.90;;;;;;5036215;28;20025;-69
2022/07/11 12:09:55;;;;;;;2.63;0.73;;;23.70;99.90;;;;;;5018331;28;20108;-69
2022/07/11 12:15:21;;;;;;;4.90;1.25;;;24.30;99.90;;;;;;5036270;28;20032;-69
2022/07/11 12:17:47;;;;;;;4.00;1.20;;;24.30;99.90;;;;;;5036377;28;20370;-69
2022/07/11 12:20:12;;;;;;;4.05;1.20;;;24.30;99.90;;;;;;5036115;28;20030;-69
2022/07/11 12:22:43;;;;;;;1.80;0.85;;;24.50;99.90;;;;;;5031333;28;20037;-69
2022/07/11 12:25:09;;;;;;;4.28;1.05;;;24.90;99.90;;;;;;5019001;28;20024;-69
2022/07/11 12:27:35;;;;;;;2.13;0.68;;;24.60;99.90;;;;;;5015946;28;20060;-69
2022/07/11 12:30:02;;;;;;;2.45;0.90;;;24.90;99.90;;;;;;5015942;28;20022;-69
2022/07/11 12:32:28;;;;;;;2.13;0.70;;;24.70;99.90;;;;;;5015792;28;20113;-69
2022/07/11 12:34:53;;;;;;;2.45;0.70;;;24.90;99.90;;;;;;5015853;28;20115;-69
2022/07/11 12:37:20;;;;;;;4.50;0.80;;;24.90;99.90;;;;;;5015793;28;20041;-69
2022/07/11 12:39:56;;;;;;;3.88;0.82;;;25.20;99.90;;;;;;5015856;28;20034;-69
2022/07/11 12:42:32;;;;;;;9.27;0.82;;;25.40;99.90;;;;;;5015609;28;20096;-69
2022/07/11 12:45:08;;;;;;;1.75;0.43;;;25.50;99.90;;;;;;5015928;28;20101;-69
2022/07/11 12:47:45;;;;;;;1.15;0.50;;;25.70;99.90;;;;;;5016156;28;20022;-69
2022/07/11 12:50:22;;;;;;;3.58;0.88;;;25.90;99.90;;;;;;5015773;28;20030;-69
2022/07/11 12:52:51;;;;;;;3.80;0.73;;;26.10;99.90;;;;;;5015621;28;20053;-69
2022/07/11 12:55:28;;;;;;;1.98;0.65;;;26.20;99.90;;;;;;5015518;28;20029;-69
2022/07/11 12:58:06;;;;;;;2.60;0.90;;;26.20;99.90;;;;;;5015436;28;20022;-69
2022/07/11 13:00:32;;;;;;;2.83;0.77;;;26.40;99.90;;;;;;5015514;28;20032;-69
2022/07/11 13:02:59;;;;;;;3.35;0.82;;;26.50;99.90;;;;;;5035398;23;20331;-69